"WATCHING THE WEATHER TO PROTECT LIFE AND PROPERTY"


ER ZIJN MOMENTEEL GEEN (VOOR)WAARSCHUWINGEN


Satelliet (InfraRood)


KFLL 250453Z 00000KT 10SM -RA FEW025 SCT070 BKN200 25/25 A2996 RMK AO2 RAE32B38 SLP145 OCNL LTGICCG DSNT SE AND SW CB DSNT SE AND SW MOV S P0016 T02500250 403110239
KMCO 250453Z 01005KT 10SM FEW030 SCT080 24/21 A3001 RMK AO2 SLP161 T02440211 403110233
KMIA 250453Z 34003KT 10SM FEW025 SCT050 BKN250 26/24 A2996 RMK AO2 SLP147 CB DSNT NE-E T02610244 403170239 $
KTPA 250453Z 07005KT 10SM CLR 27/21 A3000 RMK AO2 SLP159 T02670211 403390250 $
MDPP 250300Z 04006KT 9999 BKN018 SCT300 26/25 Q1014
MDSD 250500Z 05004KT 9999 FEW016CB SCT018 25/25 Q1013 RETS CB/NE
MKJS 250500Z VRB02KT 9999 SCT020 27/25 Q1013
MTPP 250459Z AUTO 12005KT 8000 ////// 27/24 Q1013 A2993 NOSIG
MUHA 250455Z 05003KT 9000 FEW030 22/22 Q1015
MYNN 250500Z 11006KT 9999 FEW015CB SCT018TCU BKN100 26/24 A2999
TAPA 250500Z VRB02KT 9999 SCT020 26/24 Q1014 NOSIG
TFFF 250530Z AUTO 10003KT 9999 FEW039 25/24 Q1013
TFFR 250530Z AUTO 13003KT CAVOK 25/24 Q1014
TIST 250453Z AUTO 07004KT 10SM CLR 27/23 A2996 RMK AO2 SLP145 T02720233
TISX 250453Z AUTO 36004KT 10SM FEW022 26/24 A2997 RMK AO2 SLP147 T02560239
TJSJ 250456Z 00000KT 10SM FEW033 28/24 A2996 RMK AO2 SLP143 T02780239
TKPK 242200Z 05004KT 9999 FEW022 28/25 Q1014
TNCA 250500Z 09015KT 9999 FEW018 29/25 Q1012 NOSIG
TNCB 250455Z AUTO 09010KT 9999 NCD 28/26 Q1012
TNCC 250500Z AUTO 11011KT 9999 FEW018 28/26 Q1012
TNCE 250455Z AUTO 09004KT 060V130 //// // ///////// 28/24 Q1014 RE//
TNCM 250500Z 07004KT 9999 FEW020 28/25 Q1015
TQPF 242300Z 09003KT 9999 FEW019TCU 28/25 Q1014 RMK TCU-NW
TUPJ 250000Z VRB02KT 10SM FEW022 30/25 A2995 RMK Q1014 VIS 16KM